Time;durP1;ratioP1;P1;durP2;ratioP2;P2;SDS_P1;SDS_P2;PMS_P1;PMS_P2;Temp;Humidity;BMP_temperature;BMP_pressure;BME280_temperature;BME280_humidity;BME280_pressure;Samples;Min_cycle;Max_cycle;Signal;HPM_P1;HPM_P2
2022/11/05 00:18:15;;;;;;;1.90;1.20;;;;;;;18.33;60.93;96411.38;10440107;28;20535;-29
2022/11/05 00:28:34;;;;;;;2.00;0.90;;;;;;;18.32;61.15;96422.38;10437593;28;20370;-29
2022/11/05 00:33:40;;;;;;;2.83;1.83;;;;;;;18.31;60.67;96433.31;10438958;28;20055;-29
2022/11/05 00:38:41;;;;;;;1.27;0.90;;;;;;;18.30;61.15;96441.78;10434546;28;20067;-28
2022/11/05 00:54:19;;;;;;;2.42;1.60;;;;;;;18.30;60.77;96447.72;10437737;28;20123;-28
2022/11/05 00:59:19;;;;;;;3.27;0.80;;;;;;;18.29;61.00;96450.19;10442436;28;20062;-28
2022/11/05 01:04:19;;;;;;;2.23;1.10;;;;;;;18.33;62.26;96460.34;10437798;28;20029;-28
2022/11/05 01:09:20;;;;;;;2.10;1.03;;;;;;;18.29;62.15;96460.34;10441451;28;20048;-28
2022/11/05 01:14:20;;;;;;;3.90;1.23;;;;;;;18.32;61.90;96470.53;10442435;28;20604;-28
2022/11/05 01:19:20;;;;;;;2.67;1.20;;;;;;;18.31;61.58;96472.19;10434967;28;20041;-29
2022/11/05 01:24:21;;;;;;;3.87;1.03;;;;;;;18.31;61.26;96473.88;10441053;28;20654;-29
2022/11/05 01:29:21;;;;;;;2.73;1.10;;;;;;;18.28;61.14;96478.94;10435626;28;20459;-28
2022/11/05 01:34:22;;;;;;;2.00;0.90;;;;;;;18.27;61.56;96478.09;10441009;28;20467;-27
2022/11/05 01:39:22;;;;;;;1.73;0.82;;;;;;;18.27;61.25;96482.31;10437274;28;20311;-29
2022/11/05 01:44:50;;;;;;;1.33;0.63;;;;;;;18.28;61.44;96478.94;10442656;28;20052;-28
2022/11/05 01:49:51;;;;;;;4.00;1.02;;;;;;;18.19;61.66;96468.81;10432934;28;20561;-28
2022/11/05 01:54:51;;;;;;;1.07;0.73;;;;;;;18.27;61.41;96482.31;10443601;28;20087;-27
2022/11/05 01:59:57;;;;;;;1.30;1.20;;;;;;;18.21;61.28;96467.97;10435506;28;20658;-29
2022/11/05 02:05:02;;;;;;;2.10;0.98;;;;;;;18.26;61.33;96480.63;10437702;28;20395;-28
2022/11/05 02:10:04;;;;;;;3.92;0.93;;;;;;;18.28;62.55;96481.47;10435084;28;20124;-28
2022/11/05 02:15:05;;;;;;;3.55;0.93;;;;;;;18.28;62.59;96486.53;10437893;28;20065;-28
2022/11/05 02:20:26;;;;;;;0.90;0.80;;;;;;;18.33;62.20;96492.47;10437544;28;20040;-28
2022/11/05 02:25:52;;;;;;;1.70;1.10;;;;;;;18.26;61.96;96489.06;10442975;28;20029;-28
2022/11/05 02:31:03;;;;;;;0.97;0.80;;;;;;;18.28;61.71;96494.13;10434946;28;20513;-26
2022/11/05 02:36:28;;;;;;;3.15;1.20;;;;;;;18.26;61.98;96495.84;10438218;28;20385;-30
2022/11/05 02:41:40;;;;;;;2.45;0.75;;;;;;;18.27;62.12;96487.38;10442916;28;20487;-32
2022/11/05 02:46:45;;;;;;;1.55;0.80;;;;;;;18.24;61.98;96484.88;10437147;28;20030;-29
2022/11/05 02:51:54;;;;;;;1.75;0.70;;;;;;;18.23;61.96;96489.06;10439330;28;20436;-28
2022/11/05 02:56:57;;;;;;;3.28;1.20;;;;;;;18.23;62.28;96488.22;10442343;28;20438;-27
2022/11/05 03:01:59;;;;;;;2.08;0.75;;;;;;;18.20;62.19;96496.69;10440340;28;20043;-32
2022/11/05 03:07:27;;;;;;;2.45;1.20;;;;;;;18.21;62.46;96503.44;10436870;28;20046;-29
2022/11/05 03:12:36;;;;;;;2.92;0.90;;;;;;;18.22;62.46;96520.34;10441705;28;20057;-28
2022/11/05 03:18:12;;;;;;;5.53;1.25;;;;;;;18.23;63.16;96526.22;10434958;28;20116;-28
2022/11/05 03:23:44;;;;;;;1.60;0.95;;;;;;;18.25;63.16;96529.63;10434135;28;20037;-27
2022/11/05 03:28:51;;;;;;;1.08;0.80;;;;;;;18.28;62.93;96534.69;10431933;28;20496;-28
2022/11/05 03:33:53;;;;;;;3.78;1.05;;;;;;;18.23;62.67;96536.38;10437224;28;20099;-28
2022/11/05 03:38:58;;;;;;;6.47;1.00;;;;;;;18.23;62.56;96542.28;10440173;28;20730;-28
2022/11/05 03:44:03;;;;;;;1.50;1.08;;;;;;;18.15;62.63;96554.13;10431613;28;20057;-28
2022/11/05 03:49:07;;;;;;;2.20;0.73;;;;;;;18.16;62.97;96565.13;10445014;28;20133;-29
2022/11/05 03:54:08;;;;;;;3.97;1.60;;;;;;;18.14;62.90;96570.19;10444981;28;20390;-29
2022/11/05 03:59:10;;;;;;;1.50;0.85;;;;;;;18.16;62.92;96585.38;10440433;28;20040;-28
2022/11/05 04:04:10;;;;;;;1.02;0.90;;;;;;;18.14;63.16;96582.84;10444221;28;20079;-28
2022/11/05 04:14:30;;;;;;;3.55;0.93;;;;;;;18.13;62.97;96590.44;10441328;28;20033;-28
2022/11/05 04:24:50;;;;;;;1.17;0.75;;;;;;;18.04;62.63;96565.13;10438068;28;20299;-27
2022/11/05 04:35:09;;;;;;;2.70;0.75;;;;;;;18.25;63.14;96595.50;10446857;28;20442;-28
2022/11/05 04:40:10;;;;;;;4.80;0.90;;;;;;;18.23;62.77;96602.25;10442585;28;20041;-28
2022/11/05 04:45:10;;;;;;;0.90;0.83;;;;;;;18.21;62.76;96614.09;10438184;28;20032;-28
2022/11/05 04:50:12;;;;;;;1.87;0.87;;;;;;;18.15;63.06;96614.94;10443295;28;20032;-28
2022/11/05 04:55:12;;;;;;;1.88;0.98;;;;;;;18.11;62.96;96625.06;10440301;28;20418;-28
2022/11/05 05:00:13;;;;;;;1.80;0.88;;;;;;;18.11;63.22;96627.59;10436849;28;20032;-28
2022/11/05 05:05:13;;;;;;;3.53;1.58;;;;;;;18.10;63.29;96610.72;10441246;28;20035;-28
2022/11/05 05:10:14;;;;;;;2.45;0.80;;;;;;;18.09;63.45;96624.25;10437754;28;20106;-29
2022/11/05 05:15:14;;;;;;;2.10;0.70;;;;;;;18.10;63.18;96643.66;10441088;28;20057;-27
2022/11/05 05:25:34;;;;;;;3.97;0.95;;;;;;;18.24;61.87;96647.88;10441831;28;20044;-28
2022/11/05 05:30:34;;;;;;;2.13;0.60;;;;;;;18.26;62.04;96653.78;10434449;28;20099;-28
2022/11/05 05:35:35;;;;;;;1.87;1.00;;;;;;;18.29;62.16;96655.47;10435944;28;20235;-28
2022/11/05 05:40:35;;;;;;;2.43;0.60;;;;;;;18.32;62.47;96663.97;10440484;28;20102;-29
2022/11/05 05:45:35;;;;;;;1.37;1.10;;;;;;;18.35;61.62;96670.72;10441203;28;20037;-28
2022/11/05 05:50:36;;;;;;;1.30;0.70;;;;;;;18.35;61.03;96663.94;10433726;28;20303;-28
2022/11/05 05:55:40;;;;;;;1.67;0.68;;;;;;;18.31;61.23;96666.47;10439522;28;20024;-28
2022/11/05 06:00:41;;;;;;;1.63;1.13;;;;;;;18.28;61.63;96671.53;10437700;28;20499;-28
2022/11/05 06:05:41;;;;;;;2.50;0.97;;;;;;;18.30;61.84;96674.94;10438796;28;20120;-29
2022/11/05 06:10:41;;;;;;;1.67;0.60;;;;;;;18.29;61.25;96689.31;10435198;28;20280;-27
2022/11/05 06:15:42;;;;;;;0.83;0.60;;;;;;;18.30;61.43;96701.13;10424077;28;20766;-29
2022/11/05 06:20:42;;;;;;;3.00;0.70;;;;;;;18.33;61.59;96707.91;10436178;28;20491;-29
2022/11/05 06:25:42;;;;;;;1.20;0.77;;;;;;;18.31;61.49;96710.41;10434712;28;20512;-28
2022/11/05 06:30:50;;;;;;;2.83;1.00;;;;;;;18.33;61.41;96718.88;10440241;28;20044;-28
2022/11/05 06:35:51;;;;;;;1.67;0.88;;;;;;;18.34;61.40;96722.25;10436727;28;20491;-28
2022/11/05 06:40:52;;;;;;;0.88;0.55;;;;;;;18.32;61.85;96731.56;10431540;28;20048;-29
2022/11/05 06:45:52;;;;;;;2.23;0.90;;;;;;;18.35;62.00;96739.97;10432366;28;20249;-29
2022/11/05 06:50:54;;;;;;;1.92;0.60;;;;;;;18.36;62.08;96735.78;10434307;28;20299;-28
2022/11/05 06:55:54;;;;;;;3.50;0.90;;;;;;;18.39;60.85;96750.97;10432616;28;20035;-28
2022/11/05 07:00:59;;;;;;;2.23;1.07;;;;;;;18.34;61.29;96770.41;10435735;28;20488;-30
2022/11/05 07:06:00;;;;;;;3.00;1.40;;;;;;;18.31;61.19;96775.47;10434475;28;20026;-28
2022/11/05 07:11:00;;;;;;;1.50;1.40;;;;;;;18.35;61.21;96782.25;10431713;28;20033;-27
2022/11/05 07:16:00;;;;;;;1.70;1.35;;;;;;;18.27;61.24;96777.13;10433598;28;20103;-28
2022/11/05 07:21:01;;;;;;;4.37;1.30;;;;;;;18.35;61.00;96795.75;10432172;28;20612;-28
2022/11/05 07:26:01;;;;;;;3.90;1.70;;;;;;;18.28;61.24;96808.38;10437177;28;20306;-28
2022/11/05 07:31:02;;;;;;;1.92;1.40;;;;;;;18.33;61.07;96817.72;10433982;28;20111;-30
2022/11/05 07:36:02;;;;;;;2.00;1.63;;;;;;;18.21;61.61;96827.81;10429878;28;20025;-28
2022/11/05 07:41:03;;;;;;;1.95;1.02;;;;;;;18.37;61.18;96841.38;10435163;28;20037;-28
2022/11/05 07:46:03;;;;;;;2.78;1.83;;;;;;;18.39;60.97;96849.81;10431038;28;20041;-29
2022/11/05 07:51:04;;;;;;;5.50;1.58;;;;;;;18.38;61.54;96860.81;10437083;28;20040;-31
2022/11/05 07:56:04;;;;;;;3.70;1.80;;;;;;;18.38;61.36;96866.75;10437943;28;20029;-31
2022/11/05 08:01:06;;;;;;;6.47;2.92;;;;;;;18.29;60.82;96861.66;10433930;28;20305;-31
2022/11/05 08:06:06;;;;;;;3.58;3.00;;;;;;;18.31;60.77;96870.09;10434967;28;20071;-31
2022/11/05 08:11:08;;;;;;;6.03;3.10;;;;;;;18.29;61.44;96873.44;10435646;28;20048;-30
2022/11/05 08:16:09;;;;;;;4.53;2.40;;;;;;;18.21;62.47;96877.63;10429021;28;20032;-27
2022/11/05 08:21:10;;;;;;;9.75;2.88;;;;;;;18.24;61.65;96883.56;10432990;28;20028;-28
2022/11/05 08:26:10;;;;;;;4.90;2.20;;;;;;;18.24;61.90;96882.72;10438502;28;20127;-28
2022/11/05 08:31:13;;;;;;;3.22;2.33;;;;;;;18.07;61.56;96864.91;10432073;28;20029;-28
2022/11/05 08:36:13;;;;;;;4.10;2.08;;;;;;;18.17;61.97;96888.59;10437039;28;20036;-28
2022/11/05 08:41:13;;;;;;;2.90;2.53;;;;;;;18.10;62.53;96899.56;10443225;28;20037;-28
2022/11/05 08:46:14;;;;;;;4.00;2.90;;;;;;;18.12;62.02;96902.94;10433852;28;20116;-28
2022/11/05 08:51:14;;;;;;;3.55;2.22;;;;;;;18.10;62.17;96894.47;10440758;28;20253;-28
2022/11/05 08:56:15;;;;;;;5.17;2.87;;;;;;;18.18;61.00;96903.78;10438509;28;20028;-29
2022/11/05 09:01:15;;;;;;;4.83;2.47;;;;;;;18.18;61.08;96908.84;10441315;28;20560;-27
2022/11/05 09:06:15;;;;;;;3.23;2.10;;;;;;;18.23;60.94;96911.41;10437787;28;20033;-29
2022/11/05 09:11:17;;;;;;;3.27;2.47;;;;;;;18.20;61.48;96912.28;10436981;28;20478;-28
2022/11/05 09:16:20;;;;;;;2.72;2.30;;;;;;;18.15;61.51;96913.09;10439295;28;20295;-29
2022/11/05 09:21:20;;;;;;;4.15;2.22;;;;;;;18.25;61.67;96918.19;10443700;28;20403;-28
2022/11/05 09:26:21;;;;;;;7.60;3.10;;;;;;;18.30;62.04;96923.31;10442850;28;20032;-28
2022/11/05 09:31:21;;;;;;;8.13;2.43;;;;;;;18.32;61.52;96925.00;10439307;28;20096;-28
2022/11/05 09:36:22;;;;;;;5.17;2.47;;;;;;;18.32;61.42;96921.66;10442022;28;20249;-28
2022/11/05 09:41:31;;;;;;;3.83;2.40;;;;;;;18.36;61.54;96926.72;10437001;28;20292;-29
2022/11/05 09:46:42;;;;;;;6.45;2.80;;;;;;;18.39;61.41;96928.41;10430803;28;20375;-29
2022/11/05 09:51:43;;;;;;;6.03;2.78;;;;;;;18.27;60.41;96933.41;10440404;28;20565;-28
2022/11/05 09:56:44;;;;;;;9.50;3.75;;;;;;;18.37;61.32;96941.09;10436474;28;20112;-29
2022/11/05 10:01:46;;;;;;;5.88;3.20;;;;;;;18.39;61.42;96948.69;10436998;28;20047;-29
2022/11/05 10:07:01;;;;;;;11.23;3.78;;;;;;;18.39;62.33;96951.22;10441347;28;20550;-28
2022/11/05 10:12:06;;;;;;;6.70;3.42;;;;;;;18.37;62.13;96950.38;10437609;28;20128;-28
2022/11/05 10:17:14;;;;;;;6.97;2.53;;;;;;;18.41;61.26;96957.16;10433046;28;20322;-28
2022/11/05 10:22:16;;;;;;;6.10;3.17;;;;;;;18.43;61.50;96968.16;10434961;28;20037;-28
2022/11/05 10:27:20;;;;;;;6.45;2.40;;;;;;;18.42;61.23;96969.00;10439071;28;20036;-28
2022/11/05 10:32:33;;;;;;;3.33;2.45;;;;;;;18.43;61.17;96975.75;10433868;28;20082;-28
2022/11/05 10:37:35;;;;;;;4.20;2.30;;;;;;;18.39;61.10;96977.44;10433356;28;20036;-30
2022/11/05 10:42:51;;;;;;;5.78;2.80;;;;;;;18.33;61.13;96977.41;10442830;28;20490;-29
2022/11/05 10:47:59;;;;;;;7.13;4.03;;;;;;;18.40;61.33;96988.44;10432332;28;20124;-28
2022/11/05 10:53:12;;;;;;;6.65;3.05;;;;;;;18.38;61.75;96980.81;10442039;28;20049;-29
2022/11/05 10:58:16;;;;;;;4.07;2.60;;;;;;;18.39;62.21;96979.97;10432761;28;20029;-29
2022/11/05 11:03:35;;;;;;;5.70;2.50;;;;;;;18.33;61.48;96969.78;10437986;28;20518;-27
2022/11/05 11:08:36;;;;;;;6.63;2.55;;;;;;;18.41;61.77;96977.44;10436963;28;20491;-29
2022/11/05 11:14:04;;;;;;;8.57;3.35;;;;;;;18.40;62.13;96983.34;10437469;28;20053;-28
2022/11/05 11:19:20;;;;;;;5.85;3.42;;;;;;;18.37;63.41;96981.66;10427926;28;20033;-28
2022/11/05 11:24:23;;;;;;;5.43;3.10;;;;;;;18.39;62.44;96984.19;10436810;28;20112;-28
2022/11/05 11:29:29;;;;;;;4.40;2.45;;;;;;;18.40;61.57;96981.66;10430593;28;20112;-28
2022/11/05 11:34:37;;;;;;;6.30;3.17;;;;;;;18.39;61.28;96979.09;10429708;28;20033;-28
2022/11/05 11:39:39;;;;;;;6.70;2.88;;;;;;;18.41;61.99;96982.53;10433762;28;20030;-27
2022/11/05 11:44:43;;;;;;;5.40;2.63;;;;;;;18.43;61.89;96980.81;10429532;28;20547;-27
2022/11/05 11:49:47;;;;;;;4.78;2.70;;;;;;;18.41;61.99;96990.13;10428911;28;20411;-29
2022/11/05 11:54:49;;;;;;;7.45;2.70;;;;;;;18.38;62.10;96985.88;10435804;28;20117;-28
2022/11/05 11:59:50;;;;;;;4.85;2.60;;;;;;;18.32;62.04;96992.63;10435086;28;20040;-28
2022/11/05 12:04:53;;;;;;;5.95;2.97;;;;;;;18.36;62.02;96986.72;10434853;28;20640;-28
2022/11/05 12:10:12;;;;;;;12.43;3.00;;;;;;;18.35;61.46;96988.38;10441769;28;20036;-28
2022/11/05 12:15:31;;;;;;;13.02;3.58;;;;;;;18.33;61.96;96996.84;10436451;28;20522;-27
2022/11/05 12:20:31;;;;;;;8.88;3.28;;;;;;;18.32;60.67;97003.59;10445002;28;20033;-28
2022/11/05 12:25:39;;;;;;;5.07;2.97;;;;;;;18.35;60.01;96990.09;10444407;28;20029;-28
2022/11/05 12:31:29;;;;;;;9.38;3.22;;;;;;;18.38;59.90;96979.94;10438616;28;20302;-26
2022/11/05 12:37:04;;;;;;;6.15;2.63;;;;;;;18.35;59.71;96974.88;10421401;28;20042;-28
2022/11/05 12:42:17;;;;;;;4.25;2.70;;;;;;;18.33;60.18;96969.78;10439540;28;20072;-28
2022/11/05 12:47:26;;;;;;;7.88;3.13;;;;;;;18.31;61.04;96975.69;10442788;28;20064;-28
2022/11/05 12:52:39;;;;;;;8.48;3.03;;;;;;;18.53;59.27;96980.03;10438821;28;20059;-28
2022/11/05 12:57:42;;;;;;;7.88;2.78;;;;;;;18.39;58.16;96979.09;10432355;28;20474;-28
2022/11/05 13:02:55;;;;;;;10.50;3.08;;;;;;;18.45;61.82;96984.22;10428984;28;20037;-28
2022/11/05 13:08:09;;;;;;;11.55;3.58;;;;;;;18.45;61.64;96969.00;10435065;28;20063;-28
2022/11/05 13:13:23;;;;;;;13.80;3.08;;;;;;;18.46;61.32;96978.28;10439446;28;20482;-28
2022/11/05 13:18:38;;;;;;;6.18;2.63;;;;;;;18.42;58.54;96971.53;10427792;28;20244;-28
2022/11/05 13:23:44;;;;;;;8.02;2.78;;;;;;;18.38;61.71;96959.66;10435282;28;20033;-28
2022/11/05 13:28:51;;;;;;;7.20;2.55;;;;;;;18.38;58.32;96957.13;10431576;28;20026;-28
2022/11/05 13:33:53;;;;;;;6.00;3.30;;;;;;;18.39;59.66;96953.75;10437615;28;20040;-28
2022/11/05 13:39:00;;;;;;;6.60;3.58;;;;;;;18.28;59.52;96957.91;10437345;28;20025;-29
2022/11/05 13:44:16;;;;;;;7.47;3.65;;;;;;;18.31;57.94;96960.47;10435288;28;20037;-27
2022/11/05 13:49:36;;;;;;;7.83;3.23;;;;;;;18.37;58.50;96950.38;10439587;28;20064;-30
2022/11/05 13:55:06;;;;;;;11.23;3.15;;;;;;;18.27;58.96;96956.22;10438321;28;20053;-28
2022/11/05 14:00:16;;;;;;;12.18;2.85;;;;;;;18.34;59.32;96960.50;10441761;28;20443;-28
2022/11/05 14:05:24;;;;;;;6.75;2.90;;;;;;;18.36;58.53;96963.91;10438811;28;20040;-29
2022/11/05 14:10:36;;;;;;;8.10;2.25;;;;;;;18.31;58.91;96970.63;10429821;28;20033;-28
2022/11/05 14:15:36;;;;;;;6.80;2.45;;;;;;;18.33;59.13;96974.03;10439422;28;20608;-27
2022/11/05 14:20:43;;;;;;;13.30;3.58;;;;;;;18.35;60.29;96967.28;10435771;28;20128;-28
2022/11/05 14:25:43;;;;;;;;;;;;;;;18.37;61.01;96968.13;10436186;28;20025;-28
2022/11/05 14:30:46;;;;;;;4.45;2.22;;;;;;;18.37;59.34;96958.84;10436308;28;20462;-28
2022/11/05 14:35:46;;;;;;;4.72;2.28;;;;;;;18.35;58.99;96954.59;10438754;28;20033;-28
2022/11/05 14:40:48;;;;;;;4.28;2.22;;;;;;;18.32;59.46;96952.06;10436606;28;20033;-28
2022/11/05 14:46:00;;;;;;;5.70;2.83;;;;;;;18.31;59.65;96963.88;10434199;28;20393;-28
2022/11/05 14:51:01;;;;;;;7.63;2.20;;;;;;;18.31;59.66;96957.94;10420873;28;20114;-28
2022/11/05 14:56:09;;;;;;;4.05;2.40;;;;;;;18.30;59.74;96966.38;10435461;28;20033;-28
2022/11/05 15:01:12;;;;;;;5.20;2.08;;;;;;;18.30;59.95;96974.84;10439944;28;20029;-27
2022/11/05 15:06:25;;;;;;;4.18;2.10;;;;;;;18.25;59.90;96970.56;10439537;28;20057;-29
2022/11/05 15:11:35;;;;;;;4.82;2.38;;;;;;;18.31;60.14;96980.75;10433531;28;20061;-27
2022/11/05 15:16:42;;;;;;;5.82;2.17;;;;;;;18.22;59.97;96971.41;10431522;28;20037;-27
2022/11/05 15:21:44;;;;;;;5.30;2.65;;;;;;;18.30;62.76;96994.28;10432642;28;20037;-29
2022/11/05 15:27:06;;;;;;;7.32;2.55;;;;;;;18.31;62.60;96998.50;10439341;28;20092;-29
2022/11/05 15:32:16;;;;;;;4.53;2.47;;;;;;;18.32;60.58;96987.56;10431167;28;20045;-29
2022/11/05 15:37:16;;;;;;;4.32;2.03;;;;;;;18.28;60.55;96988.31;10431649;28;20078;-30
2022/11/05 15:42:24;;;;;;;2.90;2.03;;;;;;;18.27;60.83;96979.03;10439230;28;20082;-29
2022/11/05 15:47:26;;;;;;;3.90;1.77;;;;;;;18.27;60.75;96981.56;10439129;28;20033;-29
2022/11/05 15:52:33;;;;;;;4.65;1.80;;;;;;;18.26;60.49;96977.34;10445332;28;20048;-30
2022/11/05 15:57:34;;;;;;;4.97;2.13;;;;;;;18.24;60.65;96979.84;10443729;28;20117;-29
2022/11/05 16:02:35;;;;;;;3.03;2.00;;;;;;;18.24;60.63;96979.03;10444632;28;20041;-29
2022/11/05 16:07:40;;;;;;;2.60;2.20;;;;;;;18.24;61.11;96976.50;10445666;28;20095;-29
2022/11/05 16:12:41;;;;;;;3.78;1.80;;;;;;;18.21;61.54;96986.59;10446329;28;20454;-29
2022/11/05 16:17:57;;;;;;;5.05;1.75;;;;;;;18.22;61.46;96994.22;10439385;28;20268;-29
2022/11/05 16:23:04;;;;;;;3.53;2.10;;;;;;;18.27;62.70;96999.31;10436452;28;20062;-29
2022/11/05 16:28:24;;;;;;;;;;;;;;;18.28;63.16;97006.06;10441902;28;20025;-29
2022/11/05 16:33:37;;;;;;;2.83;1.58;;;;;;;18.27;62.29;97009.44;10439178;28;19928;-29
2022/11/05 16:38:38;;;;;;;4.90;2.08;;;;;;;18.26;61.74;97012.81;10442913;28;20032;-29
2022/11/05 16:43:38;;;;;;;2.67;1.58;;;;;;;18.23;61.60;97011.09;10439654;28;20044;-29
2022/11/05 16:48:38;;;;;;;4.07;1.85;;;;;;;18.21;61.66;97009.41;10443880;28;20033;-29
2022/11/05 16:53:39;;;;;;;4.03;2.03;;;;;;;18.19;61.80;97019.53;10442229;28;20408;-29
2022/11/05 16:58:42;;;;;;;3.17;1.85;;;;;;;18.20;62.43;97017.84;10440373;28;20036;-29
2022/11/05 17:03:44;;;;;;;4.97;1.73;;;;;;;18.19;62.58;97021.22;10433955;28;20502;-28
2022/11/05 17:08:45;;;;;;;2.35;1.60;;;;;;;18.19;62.55;97011.09;10442269;28;20777;-30
2022/11/05 17:13:46;;;;;;;4.50;2.20;;;;;;;18.16;62.67;97013.63;10446219;28;20060;-30
2022/11/05 17:18:47;;;;;;;4.03;2.00;;;;;;;18.17;62.62;97027.97;10440675;28;20437;-29
2022/11/05 17:23:47;;;;;;;4.33;2.00;;;;;;;18.22;62.74;97042.38;10443517;28;20411;-29
2022/11/05 17:28:48;;;;;;;2.83;1.67;;;;;;;18.26;63.50;97048.31;10439070;28;20292;-29
2022/11/05 17:33:48;;;;;;;2.85;2.28;;;;;;;18.23;63.09;97031.38;10445513;28;20283;-30
2022/11/05 17:38:49;;;;;;;2.08;1.38;;;;;;;18.21;62.46;97049.94;10440886;28;20029;-29
2022/11/05 17:43:53;;;;;;;1.55;1.30;;;;;;;18.17;62.75;97063.44;10436327;28;20415;-30
2022/11/05 17:48:54;;;;;;;2.25;1.40;;;;;;;18.12;62.78;97060.03;10440472;28;20032;-29
2022/11/05 17:53:54;;;;;;;2.88;1.45;;;;;;;18.08;63.21;97048.19;10439027;28;20041;-30
2022/11/05 17:58:55;;;;;;;2.43;1.43;;;;;;;18.14;62.71;97053.28;10439585;28;20032;-29
2022/11/05 18:03:55;;;;;;;2.58;1.70;;;;;;;18.11;63.18;97071.00;10438780;28;20844;-29
2022/11/05 18:08:56;;;;;;;2.40;1.67;;;;;;;18.10;62.98;97061.72;10438842;28;20083;-30
2022/11/05 18:13:56;;;;;;;1.60;1.30;;;;;;;18.09;62.84;97053.25;10435572;28;20037;-29
2022/11/05 18:18:57;;;;;;;2.90;1.92;;;;;;;18.10;62.75;97056.66;10437114;28;20403;-29
2022/11/05 18:24:00;;;;;;;2.95;2.00;;;;;;;18.02;62.75;97043.94;10440981;28;20043;-29
2022/11/05 18:29:03;;;;;;;2.22;1.70;;;;;;;18.18;63.71;97060.06;10440066;28;20120;-30
2022/11/05 18:34:03;;;;;;;2.20;1.48;;;;;;;18.22;63.39;97057.56;10435273;28;20039;-30
2022/11/05 18:39:05;;;;;;;1.83;1.48;;;;;;;18.18;62.99;97060.91;10439335;28;20505;-29
2022/11/05 18:44:06;;;;;;;3.08;1.55;;;;;;;18.12;62.83;97060.03;10423896;28;20045;-29
2022/11/05 18:49:08;;;;;;;2.13;1.40;;;;;;;18.08;62.93;97056.63;10429707;28;20040;-29
2022/11/05 18:54:09;;;;;;;3.00;1.50;;;;;;;18.06;63.22;97043.09;10431310;28;20033;-29
2022/11/05 18:59:15;;;;;;;2.30;1.40;;;;;;;18.04;63.13;97041.38;10434354;28;20029;-29
2022/11/05 19:04:15;;;;;;;2.40;1.60;;;;;;;18.06;62.80;97047.31;10431537;28;20033;-29
2022/11/05 19:09:16;;;;;;;2.13;1.57;;;;;;;18.04;63.26;97049.84;10439302;28;20291;-29
2022/11/05 19:14:16;;;;;;;5.20;1.48;;;;;;;18.04;61.58;97036.31;10433251;28;20295;-30
2022/11/05 19:19:17;;;;;;;3.33;1.20;;;;;;;18.08;61.34;97050.72;10423010;28;20021;-28
2022/11/05 19:24:17;;;;;;;1.75;1.30;;;;;;;18.17;62.90;97048.25;10430677;28;20654;-30
2022/11/05 19:29:19;;;;;;;4.90;1.90;;;;;;;18.20;62.97;97063.47;10430832;28;20337;-30
2022/11/05 19:34:22;;;;;;;3.40;1.73;;;;;;;18.18;62.24;97072.75;10424688;28;20051;-29
2022/11/05 19:39:22;;;;;;;7.60;1.65;;;;;;;18.10;62.33;97069.31;10425502;28;20553;-28
2022/11/05 19:44:23;;;;;;;5.72;2.03;;;;;;;18.08;62.26;97063.38;10423283;28;20043;-29
2022/11/05 19:49:23;;;;;;;4.35;1.52;;;;;;;18.08;62.44;97060.84;10429335;28;20056;-29
2022/11/05 19:54:24;;;;;;;4.03;1.75;;;;;;;18.06;62.43;97065.03;10436031;28;20557;-27
2022/11/05 19:59:24;;;;;;;4.75;1.52;;;;;;;18.02;62.49;97064.19;10427040;28;20025;-29
2022/11/05 20:04:24;;;;;;;4.18;1.90;;;;;;;18.07;62.11;97076.91;10426445;28;20041;-30
2022/11/05 20:09:25;;;;;;;2.55;1.63;;;;;;;18.04;61.84;97077.72;10420671;28;20432;-29
2022/11/05 20:14:25;;;;;;;1.63;1.30;;;;;;;18.19;61.71;97082.03;10420926;28;20503;-32
2022/11/05 20:19:26;;;;;;;5.13;2.22;;;;;;;18.30;62.37;97083.84;10412328;28;20029;-29
2022/11/05 20:24:26;;;;;;;4.70;1.50;;;;;;;18.29;62.49;97093.94;10431115;28;20063;-29
2022/11/05 20:29:27;;;;;;;3.22;1.80;;;;;;;18.27;62.34;97080.41;10435215;28;20043;-29
2022/11/05 20:34:29;;;;;;;4.82;1.83;;;;;;;18.28;61.95;97087.16;10435906;28;20118;-29
2022/11/05 20:39:29;;;;;;;3.75;1.60;;;;;;;18.31;61.45;97088.06;10433687;28;20461;-29
2022/11/05 20:44:30;;;;;;;3.15;1.38;;;;;;;18.33;60.84;97086.38;10441934;28;20029;-29
2022/11/05 20:49:30;;;;;;;5.70;1.80;;;;;;;18.32;61.05;97073.72;10429104;28;20515;-29
2022/11/05 20:54:31;;;;;;;5.30;2.00;;;;;;;18.34;60.89;97083.00;10436467;28;20120;-30
2022/11/05 20:59:31;;;;;;;4.97;1.40;;;;;;;18.35;61.16;97091.47;10433989;28;20341;-29
2022/11/05 21:04:31;;;;;;;3.10;2.25;;;;;;;18.34;61.39;97090.63;10427516;28;20040;-29
2022/11/05 21:09:32;;;;;;;2.33;1.48;;;;;;;18.36;61.51;97090.63;10438498;28;20037;-29
2022/11/05 21:14:32;;;;;;;5.23;1.40;;;;;;;18.35;61.50;97094.00;10422829;28;20502;-28
2022/11/05 21:19:33;;;;;;;2.80;1.60;;;;;;;18.33;62.25;97100.78;10435241;28;20275;-30
2022/11/05 21:24:34;;;;;;;5.93;1.88;;;;;;;18.34;61.96;97094.84;10439160;28;20033;-29
2022/11/05 21:29:36;;;;;;;3.00;1.20;;;;;;;18.38;60.77;97084.75;10443421;28;20087;-29
2022/11/05 21:34:36;;;;;;;3.35;1.38;;;;;;;18.38;60.77;97088.94;10434594;28;20044;-29
2022/11/05 21:39:37;;;;;;;2.13;1.40;;;;;;;18.37;61.05;97088.13;10439719;28;20495;-29
2022/11/05 21:44:37;;;;;;;4.30;1.40;;;;;;;18.33;61.07;97091.47;10438191;28;20295;-29
2022/11/05 21:49:38;;;;;;;1.93;1.43;;;;;;;18.37;60.98;97097.41;10435418;28;20041;-29
2022/11/05 21:59:59;;;;;;;2.78;1.75;;;;;;;18.35;61.42;97097.38;10437453;28;20087;-29
2022/11/05 22:05:01;;;;;;;2.65;1.65;;;;;;;18.31;61.37;97083.00;10428508;28;20040;-29
2022/11/05 22:10:04;;;;;;;3.13;1.70;;;;;;;18.37;60.99;97092.31;10440305;28;20055;-29
2022/11/05 22:15:04;;;;;;;13.45;2.20;;;;;;;18.36;61.39;97073.75;10425620;28;20032;-28
2022/11/05 22:20:05;;;;;;;5.97;1.80;;;;;;;18.35;61.66;97063.59;10439151;28;20036;-29
2022/11/05 22:25:06;;;;;;;4.97;1.95;;;;;;;18.35;61.74;97068.66;10442575;28;20090;-29
2022/11/05 22:30:07;;;;;;;5.00;1.85;;;;;;;18.35;61.32;97066.97;10437978;28;20040;-29
2022/11/05 22:35:08;;;;;;;2.63;1.90;;;;;;;18.36;60.87;97065.28;10435252;28;20037;-30
2022/11/05 22:40:08;;;;;;;7.10;1.85;;;;;;;18.35;60.67;97056.00;10440134;28;20055;-28
2022/11/05 22:45:09;;;;;;;4.78;1.40;;;;;;;18.34;60.86;97066.97;10437147;28;20045;-29
2022/11/05 22:50:10;;;;;;;4.03;1.60;;;;;;;18.34;60.58;97074.56;10433916;28;20037;-30
2022/11/05 22:55:10;;;;;;;3.83;1.38;;;;;;;18.34;60.78;97066.97;10438248;28;20108;-29
2022/11/05 23:00:16;;;;;;;6.10;1.63;;;;;;;18.34;60.67;97062.72;10434928;28;20377;-29
2022/11/05 23:05:16;;;;;;;3.42;1.45;;;;;;;18.33;60.89;97035.69;10422383;28;20076;-29
2022/11/05 23:52:52;;;;;;;4.28;1.33;;;;;;;18.27;61.11;97014.50;10430089;28;20483;-29
2022/11/05 23:57:52;;;;;;;3.33;1.25;;;;;;;18.27;60.99;97009.44;10437601;28;20044;-29
